sensor_id;sensor_type;location;lat;lon;timestamp;temperature;humidity
52859;DHT22;38721;53.098;6.596;2023-09-30T00:00:58;10.90;99.90
52859;DHT22;38721;53.098;6.596;2023-09-30T00:03:24;10.90;99.90
52859;DHT22;38721;53.098;6.596;2023-09-30T00:05:50;10.90;99.90
52859;DHT22;38721;53.098;6.596;2023-09-30T00:08:15;10.90;99.90
52859;DHT22;38721;53.098;6.596;2023-09-30T00:10:41;10.90;99.90
52859;DHT22;38721;53.098;6.596;2023-09-30T00:13:07;10.90;99.90
52859;DHT22;38721;53.098;6.596;2023-09-30T00:15:33;10.90;99.90
52859;DHT22;38721;53.098;6.596;2023-09-30T00:17:59;11.00;99.90
52859;DHT22;38721;53.098;6.596;2023-09-30T00:20:29;10.90;99.90
52859;DHT22;38721;53.098;6.596;2023-09-30T00:22:55;10.90;99.90
52859;DHT22;38721;53.098;6.596;2023-09-30T00:25:21;11.00;99.90
52859;DHT22;38721;53.098;6.596;2023-09-30T00:27:47;11.00;99.90
52859;DHT22;38721;53.098;6.596;2023-09-30T00:30:13;11.00;99.90
52859;DHT22;38721;53.098;6.596;2023-09-30T00:32:38;11.10;99.90
52859;DHT22;38721;53.098;6.596;2023-09-30T00:35:05;11.10;99.90
52859;DHT22;38721;53.098;6.596;2023-09-30T00:37:37;11.20;99.90
52859;DHT22;38721;53.098;6.596;2023-09-30T00:40:04;11.20;99.90
52859;DHT22;38721;53.098;6.596;2023-09-30T00:42:30;11.20;99.90
52859;DHT22;38721;53.098;6.596;2023-09-30T00:44:56;11.20;99.90
52859;DHT22;38721;53.098;6.596;2023-09-30T00:47:22;11.30;99.90
52859;DHT22;38721;53.098;6.596;2023-09-30T00:49:50;11.30;99.90
52859;DHT22;38721;53.098;6.596;2023-09-30T00:52:16;11.20;99.90
52859;DHT22;38721;53.098;6.596;2023-09-30T00:54:43;11.20;99.90
52859;DHT22;38721;53.098;6.596;2023-09-30T00:57:10;11.30;99.90
52859;DHT22;38721;53.098;6.596;2023-09-30T00:59:38;11.30;99.90
52859;DHT22;38721;53.098;6.596;2023-09-30T01:02:06;11.20;99.90
52859;DHT22;38721;53.098;6.596;2023-09-30T01:04:32;11.20;99.90
52859;DHT22;38721;53.098;6.596;2023-09-30T01:06:57;11.30;99.90
52859;DHT22;38721;53.098;6.596;2023-09-30T01:09:23;11.20;99.90
52859;DHT22;38721;53.098;6.596;2023-09-30T01:11:50;11.20;99.90
52859;DHT22;38721;53.098;6.596;2023-09-30T01:16:54;11.20;99.90
52859;DHT22;38721;53.098;6.596;2023-09-30T01:19:20;11.20;99.90
52859;DHT22;38721;53.098;6.596;2023-09-30T01:21:46;11.20;99.90
52859;DHT22;38721;53.098;6.596;2023-09-30T01:24:15;11.20;99.90
52859;DHT22;38721;53.098;6.596;2023-09-30T01:26:40;11.20;99.90
52859;DHT22;38721;53.098;6.596;2023-09-30T01:29:08;11.20;99.90
52859;DHT22;38721;53.098;6.596;2023-09-30T01:31:37;11.20;99.90
52859;DHT22;38721;53.098;6.596;2023-09-30T01:34:03;11.20;99.90
52859;DHT22;38721;53.098;6.596;2023-09-30T01:36:28;11.20;99.90
52859;DHT22;38721;53.098;6.596;2023-09-30T01:38:54;11.20;99.90
52859;DHT22;38721;53.098;6.596;2023-09-30T01:41:20;11.20;99.90
52859;DHT22;38721;53.098;6.596;2023-09-30T01:43:45;11.20;99.90
52859;DHT22;38721;53.098;6.596;2023-09-30T01:46:12;11.20;99.90
52859;DHT22;38721;53.098;6.596;2023-09-30T01:48:38;11.30;99.90
52859;DHT22;38721;53.098;6.596;2023-09-30T01:51:04;11.30;99.90
52859;DHT22;38721;53.098;6.596;2023-09-30T01:53:29;11.30;99.90
52859;DHT22;38721;53.098;6.596;2023-09-30T01:55:55;11.40;99.90
52859;DHT22;38721;53.098;6.596;2023-09-30T01:58:21;11.50;99.90
52859;DHT22;38721;53.098;6.596;2023-09-30T02:00:46;11.50;99.90
52859;DHT22;38721;53.098;6.596;2023-09-30T02:03:12;11.50;99.90
52859;DHT22;38721;53.098;6.596;2023-09-30T02:05:39;11.60;99.90
52859;DHT22;38721;53.098;6.596;2023-09-30T02:08:05;11.60;99.90
52859;DHT22;38721;53.098;6.596;2023-09-30T02:10:32;11.50;99.90
52859;DHT22;38721;53.098;6.596;2023-09-30T02:13:01;11.60;99.90
52859;DHT22;38721;53.098;6.596;2023-09-30T02:15:27;11.60;99.90
52859;DHT22;38721;53.098;6.596;2023-09-30T02:17:52;11.60;99.90
52859;DHT22;38721;53.098;6.596;2023-09-30T02:20:18;11.60;99.90
52859;DHT22;38721;53.098;6.596;2023-09-30T02:22:51;11.60;99.90
52859;DHT22;38721;53.098;6.596;2023-09-30T02:25:17;11.60;99.90
52859;DHT22;38721;53.098;6.596;2023-09-30T02:27:43;11.60;99.90
52859;DHT22;38721;53.098;6.596;2023-09-30T02:30:10;11.50;99.90
52859;DHT22;38721;53.098;6.596;2023-09-30T02:32:40;11.50;99.90
52859;DHT22;38721;53.098;6.596;2023-09-30T02:35:07;11.50;99.90
52859;DHT22;38721;53.098;6.596;2023-09-30T02:37:33;11.50;99.90
52859;DHT22;38721;53.098;6.596;2023-09-30T02:40:02;11.60;99.90
52859;DHT22;38721;53.098;6.596;2023-09-30T02:42:30;11.60;99.90
52859;DHT22;38721;53.098;6.596;2023-09-30T02:44:55;11.60;99.90
52859;DHT22;38721;53.098;6.596;2023-09-30T02:47:21;11.60;99.90
52859;DHT22;38721;53.098;6.596;2023-09-30T02:49:47;11.70;99.90
52859;DHT22;38721;53.098;6.596;2023-09-30T02:52:12;11.70;99.90
52859;DHT22;38721;53.098;6.596;2023-09-30T02:54:38;11.80;99.90
52859;DHT22;38721;53.098;6.596;2023-09-30T02:57:03;11.80;99.90
52859;DHT22;38721;53.098;6.596;2023-09-30T02:59:29;11.90;99.90
52859;DHT22;38721;53.098;6.596;2023-09-30T03:01:55;11.80;99.90
52859;DHT22;38721;53.098;6.596;2023-09-30T03:04:21;11.80;99.90
52859;DHT22;38721;53.098;6.596;2023-09-30T03:06:51;11.80;99.90
52859;DHT22;38721;53.098;6.596;2023-09-30T03:09:17;11.80;99.90
52859;DHT22;38721;53.098;6.596;2023-09-30T03:11:43;11.70;99.90
52859;DHT22;38721;53.098;6.596;2023-09-30T03:14:10;11.80;99.90
52859;DHT22;38721;53.098;6.596;2023-09-30T03:16:36;11.80;99.90
52859;DHT22;38721;53.098;6.596;2023-09-30T03:19:04;11.80;99.90
52859;DHT22;38721;53.098;6.596;2023-09-30T03:21:34;11.80;99.90
52859;DHT22;38721;53.098;6.596;2023-09-30T03:24:02;11.80;99.90
52859;DHT22;38721;53.098;6.596;2023-09-30T03:26:31;11.90;99.90
52859;DHT22;38721;53.098;6.596;2023-09-30T03:28:57;11.90;99.90
52859;DHT22;38721;53.098;6.596;2023-09-30T03:31:23;11.90;99.90
52859;DHT22;38721;53.098;6.596;2023-09-30T03:33:50;11.90;99.90
52859;DHT22;38721;53.098;6.596;2023-09-30T03:36:16;11.90;99.90
52859;DHT22;38721;53.098;6.596;2023-09-30T03:38:44;12.00;99.90
52859;DHT22;38721;53.098;6.596;2023-09-30T03:41:10;11.90;99.90
52859;DHT22;38721;53.098;6.596;2023-09-30T03:43:39;12.00;99.90
52859;DHT22;38721;53.098;6.596;2023-09-30T03:46:09;11.90;99.90
52859;DHT22;38721;53.098;6.596;2023-09-30T03:48:37;11.80;99.90
52859;DHT22;38721;53.098;6.596;2023-09-30T03:51:11;11.80;99.90
52859;DHT22;38721;53.098;6.596;2023-09-30T03:53:44;11.80;99.90
52859;DHT22;38721;53.098;6.596;2023-09-30T03:56:11;11.70;99.90
52859;DHT22;38721;53.098;6.596;2023-09-30T03:58:38;11.70;99.90
52859;DHT22;38721;53.098;6.596;2023-09-30T04:01:04;11.60;99.90
52859;DHT22;38721;53.098;6.596;2023-09-30T04:03:30;11.60;99.90
52859;DHT22;38721;53.098;6.596;2023-09-30T04:05:58;11.60;99.90
52859;DHT22;38721;53.098;6.596;2023-09-30T04:08:24;11.50;99.90
52859;DHT22;38721;53.098;6.596;2023-09-30T04:10:50;11.50;99.90
52859;DHT22;38721;53.098;6.596;2023-09-30T04:13:16;11.50;99.90
52859;DHT22;38721;53.098;6.596;2023-09-30T04:15:43;11.50;99.90
52859;DHT22;38721;53.098;6.596;2023-09-30T04:18:10;11.50;99.90
52859;DHT22;38721;53.098;6.596;2023-09-30T04:20:37;11.50;99.90
52859;DHT22;38721;53.098;6.596;2023-09-30T04:23:05;11.40;99.90
52859;DHT22;38721;53.098;6.596;2023-09-30T04:25:35;11.50;99.90
52859;DHT22;38721;53.098;6.596;2023-09-30T04:28:00;11.40;99.90
52859;DHT22;38721;53.098;6.596;2023-09-30T04:30:26;11.40;99.90
52859;DHT22;38721;53.098;6.596;2023-09-30T04:32:52;11.40;99.90
52859;DHT22;38721;53.098;6.596;2023-09-30T04:35:18;11.40;99.90
52859;DHT22;38721;53.098;6.596;2023-09-30T04:37:44;11.40;99.90
52859;DHT22;38721;53.098;6.596;2023-09-30T04:40:10;11.40;99.90
52859;DHT22;38721;53.098;6.596;2023-09-30T04:42:42;11.30;99.90
52859;DHT22;38721;53.098;6.596;2023-09-30T04:45:09;11.30;99.90
52859;DHT22;38721;53.098;6.596;2023-09-30T04:47:35;11.40;99.90
52859;DHT22;38721;53.098;6.596;2023-09-30T04:50:02;11.30;99.90
52859;DHT22;38721;53.098;6.596;2023-09-30T04:52:30;11.30;99.90
52859;DHT22;38721;53.098;6.596;2023-09-30T04:54:56;11.20;99.90
52859;DHT22;38721;53.098;6.596;2023-09-30T04:57:22;11.20;99.90
52859;DHT22;38721;53.098;6.596;2023-09-30T04:59:47;11.20;99.90
52859;DHT22;38721;53.098;6.596;2023-09-30T05:02:13;11.20;99.90
52859;DHT22;38721;53.098;6.596;2023-09-30T05:04:41;11.10;99.90
52859;DHT22;38721;53.098;6.596;2023-09-30T05:07:07;11.10;99.90
52859;DHT22;38721;53.098;6.596;2023-09-30T05:09:33;11.10;99.90
52859;DHT22;38721;53.098;6.596;2023-09-30T05:11:59;11.10;99.90
52859;DHT22;38721;53.098;6.596;2023-09-30T05:14:24;11.00;99.90
52859;DHT22;38721;53.098;6.596;2023-09-30T05:16:50;11.00;99.90
52859;DHT22;38721;53.098;6.596;2023-09-30T05:19:15;11.00;99.90
52859;DHT22;38721;53.098;6.596;2023-09-30T05:21:42;11.00;99.90
52859;DHT22;38721;53.098;6.596;2023-09-30T05:24:08;10.90;99.90
52859;DHT22;38721;53.098;6.596;2023-09-30T05:26:34;10.90;99.90
52859;DHT22;38721;53.098;6.596;2023-09-30T05:28:59;10.90;99.90
52859;DHT22;38721;53.098;6.596;2023-09-30T05:31:25;10.70;99.90
52859;DHT22;38721;53.098;6.596;2023-09-30T05:33:51;10.80;99.90
52859;DHT22;38721;53.098;6.596;2023-09-30T05:36:16;10.80;99.90
52859;DHT22;38721;53.098;6.596;2023-09-30T05:38:42;10.80;99.90
52859;DHT22;38721;53.098;6.596;2023-09-30T05:41:08;10.80;99.90
52859;DHT22;38721;53.098;6.596;2023-09-30T05:43:34;10.80;99.90
52859;DHT22;38721;53.098;6.596;2023-09-30T05:45:59;10.80;99.90
52859;DHT22;38721;53.098;6.596;2023-09-30T05:48:25;10.90;99.90
52859;DHT22;38721;53.098;6.596;2023-09-30T05:50:51;10.80;99.90
52859;DHT22;38721;53.098;6.596;2023-09-30T05:53:17;10.90;99.90
52859;DHT22;38721;53.098;6.596;2023-09-30T05:55:42;10.90;99.90
52859;DHT22;38721;53.098;6.596;2023-09-30T05:58:14;10.90;99.90
52859;DHT22;38721;53.098;6.596;2023-09-30T06:00:43;11.00;99.90
52859;DHT22;38721;53.098;6.596;2023-09-30T06:03:09;10.90;99.90
52859;DHT22;38721;53.098;6.596;2023-09-30T06:05:41;10.90;99.90
52859;DHT22;38721;53.098;6.596;2023-09-30T06:08:08;10.80;99.90
52859;DHT22;38721;53.098;6.596;2023-09-30T06:10:36;10.80;99.90
52859;DHT22;38721;53.098;6.596;2023-09-30T06:13:04;10.80;99.90
52859;DHT22;38721;53.098;6.596;2023-09-30T06:15:30;10.90;99.90
52859;DHT22;38721;53.098;6.596;2023-09-30T06:17:57;10.90;99.90
52859;DHT22;38721;53.098;6.596;2023-09-30T06:20:23;10.90;99.90
52859;DHT22;38721;53.098;6.596;2023-09-30T06:22:51;11.00;99.90
52859;DHT22;38721;53.098;6.596;2023-09-30T06:25:20;11.00;99.90
52859;DHT22;38721;53.098;6.596;2023-09-30T06:27:47;11.00;99.90
52859;DHT22;38721;53.098;6.596;2023-09-30T06:30:14;11.20;99.90
52859;DHT22;38721;53.098;6.596;2023-09-30T06:32:41;11.20;99.90
52859;DHT22;38721;53.098;6.596;2023-09-30T06:35:08;11.30;99.90
52859;DHT22;38721;53.098;6.596;2023-09-30T06:37:40;11.30;99.90
52859;DHT22;38721;53.098;6.596;2023-09-30T06:40:08;11.40;99.90
52859;DHT22;38721;53.098;6.596;2023-09-30T06:42:35;11.50;99.90
52859;DHT22;38721;53.098;6.596;2023-09-30T06:45:02;11.60;99.90
52859;DHT22;38721;53.098;6.596;2023-09-30T06:47:32;11.70;99.90
52859;DHT22;38721;53.098;6.596;2023-09-30T06:50:00;11.80;99.90
52859;DHT22;38721;53.098;6.596;2023-09-30T06:52:33;11.80;99.90
52859;DHT22;38721;53.098;6.596;2023-09-30T06:54:59;11.90;99.90
52859;DHT22;38721;53.098;6.596;2023-09-30T06:57:25;12.00;99.90
52859;DHT22;38721;53.098;6.596;2023-09-30T06:59:51;12.10;99.90
52859;DHT22;38721;53.098;6.596;2023-09-30T07:02:16;12.20;99.90
52859;DHT22;38721;53.098;6.596;2023-09-30T07:04:42;12.30;99.90
52859;DHT22;38721;53.098;6.596;2023-09-30T07:07:07;12.40;99.90
52859;DHT22;38721;53.098;6.596;2023-09-30T07:09:33;12.50;99.90
52859;DHT22;38721;53.098;6.596;2023-09-30T07:11:59;12.60;99.90
52859;DHT22;38721;53.098;6.596;2023-09-30T07:14:25;12.70;99.90
52859;DHT22;38721;53.098;6.596;2023-09-30T07:16:50;12.80;99.90
52859;DHT22;38721;53.098;6.596;2023-09-30T07:19:16;12.90;99.90
52859;DHT22;38721;53.098;6.596;2023-09-30T07:21:42;13.00;99.90
52859;DHT22;38721;53.098;6.596;2023-09-30T07:24:07;13.10;99.90
52859;DHT22;38721;53.098;6.596;2023-09-30T07:26:33;13.10;99.90
52859;DHT22;38721;53.098;6.596;2023-09-30T07:28:59;13.20;99.90
52859;DHT22;38721;53.098;6.596;2023-09-30T07:31:38;13.20;99.90
52859;DHT22;38721;53.098;6.596;2023-09-30T07:34:04;13.30;99.90
52859;DHT22;38721;53.098;6.596;2023-09-30T07:36:30;13.30;99.90
52859;DHT22;38721;53.098;6.596;2023-09-30T07:38:56;13.40;99.90
52859;DHT22;38721;53.098;6.596;2023-09-30T07:41:21;13.50;99.90
52859;DHT22;38721;53.098;6.596;2023-09-30T07:43:47;13.60;99.90
52859;DHT22;38721;53.098;6.596;2023-09-30T07:46:12;13.70;99.90
52859;DHT22;38721;53.098;6.596;2023-09-30T07:48:41;13.70;99.90
52859;DHT22;38721;53.098;6.596;2023-09-30T07:51:06;13.80;99.90
52859;DHT22;38721;53.098;6.596;2023-09-30T07:53:38;13.90;99.90
52859;DHT22;38721;53.098;6.596;2023-09-30T07:56:04;14.00;99.90
52859;DHT22;38721;53.098;6.596;2023-09-30T07:58:29;14.10;99.90
52859;DHT22;38721;53.098;6.596;2023-09-30T08:00:56;14.10;99.90
52859;DHT22;38721;53.098;6.596;2023-09-30T08:03:22;14.20;99.90
52859;DHT22;38721;53.098;6.596;2023-09-30T08:05:47;14.30;99.90
52859;DHT22;38721;53.098;6.596;2023-09-30T08:08:13;14.40;99.90
52859;DHT22;38721;53.098;6.596;2023-09-30T08:10:40;14.60;99.90
52859;DHT22;38721;53.098;6.596;2023-09-30T08:13:05;14.60;99.90
52859;DHT22;38721;53.098;6.596;2023-09-30T08:15:31;14.70;99.90
52859;DHT22;38721;53.098;6.596;2023-09-30T08:17:56;14.80;99.90
52859;DHT22;38721;53.098;6.596;2023-09-30T08:20:22;14.90;99.90
52859;DHT22;38721;53.098;6.596;2023-09-30T08:22:53;15.00;99.90
52859;DHT22;38721;53.098;6.596;2023-09-30T08:25:19;15.00;99.90
52859;DHT22;38721;53.098;6.596;2023-09-30T08:27:44;15.10;99.90
52859;DHT22;38721;53.098;6.596;2023-09-30T08:30:15;15.20;99.90
52859;DHT22;38721;53.098;6.596;2023-09-30T08:32:40;15.40;99.90
52859;DHT22;38721;53.098;6.596;2023-09-30T08:35:07;15.40;99.90
52859;DHT22;38721;53.098;6.596;2023-09-30T08:37:32;15.50;99.90
52859;DHT22;38721;53.098;6.596;2023-09-30T08:39:59;15.60;99.90
52859;DHT22;38721;53.098;6.596;2023-09-30T08:42:27;15.70;99.90
52859;DHT22;38721;53.098;6.596;2023-09-30T08:44:58;15.80;99.90
52859;DHT22;38721;53.098;6.596;2023-09-30T08:47:26;15.90;99.90
52859;DHT22;38721;53.098;6.596;2023-09-30T08:49:53;16.00;99.90
52859;DHT22;38721;53.098;6.596;2023-09-30T08:52:22;16.20;99.90
52859;DHT22;38721;53.098;6.596;2023-09-30T08:54:48;16.10;99.90
52859;DHT22;38721;53.098;6.596;2023-09-30T08:57:15;16.20;99.90
52859;DHT22;38721;53.098;6.596;2023-09-30T08:59:48;16.40;99.90
52859;DHT22;38721;53.098;6.596;2023-09-30T09:02:15;16.40;99.90
52859;DHT22;38721;53.098;6.596;2023-09-30T09:04:41;16.60;99.90
52859;DHT22;38721;53.098;6.596;2023-09-30T09:07:08;16.70;99.90
52859;DHT22;38721;53.098;6.596;2023-09-30T09:09:34;16.80;99.90
52859;DHT22;38721;53.098;6.596;2023-09-30T09:11:59;16.80;99.90
52859;DHT22;38721;53.098;6.596;2023-09-30T09:14:40;16.90;99.90
52859;DHT22;38721;53.098;6.596;2023-09-30T09:17:07;16.90;99.90
52859;DHT22;38721;53.098;6.596;2023-09-30T09:19:34;17.20;99.90
52859;DHT22;38721;53.098;6.596;2023-09-30T09:22:01;17.20;99.90
52859;DHT22;38721;53.098;6.596;2023-09-30T09:24:31;17.40;99.90
52859;DHT22;38721;53.098;6.596;2023-09-30T09:27:08;17.50;99.90
52859;DHT22;38721;53.098;6.596;2023-09-30T09:29:35;17.50;99.90
52859;DHT22;38721;53.098;6.596;2023-09-30T09:32:08;17.70;99.90
52859;DHT22;38721;53.098;6.596;2023-09-30T09:34:40;17.70;99.90
52859;DHT22;38721;53.098;6.596;2023-09-30T09:37:17;17.80;99.90
52859;DHT22;38721;53.098;6.596;2023-09-30T09:39:53;17.80;99.90
52859;DHT22;38721;53.098;6.596;2023-09-30T09:42:28;17.90;99.90
52859;DHT22;38721;53.098;6.596;2023-09-30T09:44:56;18.00;99.90
52859;DHT22;38721;53.098;6.596;2023-09-30T09:47:25;18.00;99.90
52859;DHT22;38721;53.098;6.596;2023-09-30T09:49:52;18.10;99.90
52859;DHT22;38721;53.098;6.596;2023-09-30T09:52:21;18.10;99.90
52859;DHT22;38721;53.098;6.596;2023-09-30T09:54:48;18.20;99.90
52859;DHT22;38721;53.098;6.596;2023-09-30T09:57:17;18.10;99.90
52859;DHT22;38721;53.098;6.596;2023-09-30T09:59:43;18.30;99.90
52859;DHT22;38721;53.098;6.596;2023-09-30T10:02:13;18.60;99.90
52859;DHT22;38721;53.098;6.596;2023-09-30T10:04:41;18.80;99.90
52859;DHT22;38721;53.098;6.596;2023-09-30T10:07:10;18.90;99.90
52859;DHT22;38721;53.098;6.596;2023-09-30T10:09:44;18.70;99.90
52859;DHT22;38721;53.098;6.596;2023-09-30T10:12:11;19.00;99.90
52859;DHT22;38721;53.098;6.596;2023-09-30T10:14:37;18.60;99.90
52859;DHT22;38721;53.098;6.596;2023-09-30T10:17:03;18.50;99.90
52859;DHT22;38721;53.098;6.596;2023-09-30T10:19:29;18.80;99.90
52859;DHT22;38721;53.098;6.596;2023-09-30T10:24:57;18.40;99.90
52859;DHT22;38721;53.098;6.596;2023-09-30T10:40:51;19.50;99.90
52859;DHT22;38721;53.098;6.596;2023-09-30T10:43:39;19.40;99.90
52859;DHT22;38721;53.098;6.596;2023-09-30T10:48:53;19.80;99.90
52859;DHT22;38721;53.098;6.596;2023-09-30T10:51:19;19.50;99.90
52859;DHT22;38721;53.098;6.596;2023-09-30T10:53:53;19.30;99.90
52859;DHT22;38721;53.098;6.596;2023-09-30T10:56:22;19.40;99.90
52859;DHT22;38721;53.098;6.596;2023-09-30T10:58:50;19.10;99.90
52859;DHT22;38721;53.098;6.596;2023-09-30T11:01:20;18.90;99.90
52859;DHT22;38721;53.098;6.596;2023-09-30T11:03:47;19.20;99.90
52859;DHT22;38721;53.098;6.596;2023-09-30T11:06:17;19.20;99.90
52859;DHT22;38721;53.098;6.596;2023-09-30T11:08:55;19.10;99.90
52859;DHT22;38721;53.098;6.596;2023-09-30T11:16:43;20.80;99.90
52859;DHT22;38721;53.098;6.596;2023-09-30T11:19:10;20.70;99.90
52859;DHT22;38721;53.098;6.596;2023-09-30T11:21:37;20.90;99.90
52859;DHT22;38721;53.098;6.596;2023-09-30T11:24:03;21.20;99.90
52859;DHT22;38721;53.098;6.596;2023-09-30T11:26:30;21.00;99.90
52859;DHT22;38721;53.098;6.596;2023-09-30T11:29:16;20.60;99.90
52859;DHT22;38721;53.098;6.596;2023-09-30T11:31:44;20.70;99.90
52859;DHT22;38721;53.098;6.596;2023-09-30T11:34:10;20.70;99.90
52859;DHT22;38721;53.098;6.596;2023-09-30T11:36:47;20.90;99.90
52859;DHT22;38721;53.098;6.596;2023-09-30T11:39:28;21.30;99.90
52859;DHT22;38721;53.098;6.596;2023-09-30T11:41:54;21.70;99.90
52859;DHT22;38721;53.098;6.596;2023-09-30T11:44:22;21.60;99.90
52859;DHT22;38721;53.098;6.596;2023-09-30T11:46:55;21.70;99.90
52859;DHT22;38721;53.098;6.596;2023-09-30T11:51:56;21.70;99.90
52859;DHT22;38721;53.098;6.596;2023-09-30T11:54:22;21.20;99.90
52859;DHT22;38721;53.098;6.596;2023-09-30T11:56:48;21.10;99.90
52859;DHT22;38721;53.098;6.596;2023-09-30T11:59:16;20.80;99.90
52859;DHT22;38721;53.098;6.596;2023-09-30T12:01:45;20.40;99.90
52859;DHT22;38721;53.098;6.596;2023-09-30T12:04:10;20.10;99.90
52859;DHT22;38721;53.098;6.596;2023-09-30T12:06:37;19.70;99.90
52859;DHT22;38721;53.098;6.596;2023-09-30T12:09:04;19.50;99.90
52859;DHT22;38721;53.098;6.596;2023-09-30T12:11:29;19.20;99.90
52859;DHT22;38721;53.098;6.596;2023-09-30T12:13:55;18.90;99.90
52859;DHT22;38721;53.098;6.596;2023-09-30T12:16:20;18.60;99.90
52859;DHT22;38721;53.098;6.596;2023-09-30T12:18:46;18.80;99.90
52859;DHT22;38721;53.098;6.596;2023-09-30T12:21:15;18.90;99.90
52859;DHT22;38721;53.098;6.596;2023-09-30T12:23:45;18.70;99.90
52859;DHT22;38721;53.098;6.596;2023-09-30T12:26:11;18.80;99.90
52859;DHT22;38721;53.098;6.596;2023-09-30T12:28:37;18.90;99.90
52859;DHT22;38721;53.098;6.596;2023-09-30T12:31:06;19.00;99.90
52859;DHT22;38721;53.098;6.596;2023-09-30T12:33:34;19.50;99.90
52859;DHT22;38721;53.098;6.596;2023-09-30T12:36:00;19.60;99.90
52859;DHT22;38721;53.098;6.596;2023-09-30T12:38:26;19.80;99.90
52859;DHT22;38721;53.098;6.596;2023-09-30T12:40:53;19.90;99.90
52859;DHT22;38721;53.098;6.596;2023-09-30T12:43:19;19.70;99.90
52859;DHT22;38721;53.098;6.596;2023-09-30T12:45:48;19.70;99.90
52859;DHT22;38721;53.098;6.596;2023-09-30T12:48:14;19.60;99.90
52859;DHT22;38721;53.098;6.596;2023-09-30T12:50:41;19.60;99.90
52859;DHT22;38721;53.098;6.596;2023-09-30T12:53:06;19.40;99.90
52859;DHT22;38721;53.098;6.596;2023-09-30T12:55:32;19.30;99.90
52859;DHT22;38721;53.098;6.596;2023-09-30T12:57:58;19.30;99.90
52859;DHT22;38721;53.098;6.596;2023-09-30T13:00:25;19.40;99.90
52859;DHT22;38721;53.098;6.596;2023-09-30T13:02:52;19.50;99.90
52859;DHT22;38721;53.098;6.596;2023-09-30T13:05:18;19.60;99.90
52859;DHT22;38721;53.098;6.596;2023-09-30T13:07:45;19.60;99.90
52859;DHT22;38721;53.098;6.596;2023-09-30T13:10:12;20.00;99.90
52859;DHT22;38721;53.098;6.596;2023-09-30T13:12:38;20.00;99.90
52859;DHT22;38721;53.098;6.596;2023-09-30T13:15:05;20.40;99.90
52859;DHT22;38721;53.098;6.596;2023-09-30T13:17:34;20.80;99.90
52859;DHT22;38721;53.098;6.596;2023-09-30T13:19:59;20.90;99.90
52859;DHT22;38721;53.098;6.596;2023-09-30T13:22:25;20.80;99.90
52859;DHT22;38721;53.098;6.596;2023-09-30T13:24:51;20.60;99.90
52859;DHT22;38721;53.098;6.596;2023-09-30T13:27:16;20.20;99.90
52859;DHT22;38721;53.098;6.596;2023-09-30T13:29:43;20.50;99.90
52859;DHT22;38721;53.098;6.596;2023-09-30T13:32:10;20.50;99.90
52859;DHT22;38721;53.098;6.596;2023-09-30T13:34:36;20.10;99.90
52859;DHT22;38721;53.098;6.596;2023-09-30T13:37:01;20.20;99.90
52859;DHT22;38721;53.098;6.596;2023-09-30T13:39:27;20.10;99.90
52859;DHT22;38721;53.098;6.596;2023-09-30T13:41:54;20.20;99.90
52859;DHT22;38721;53.098;6.596;2023-09-30T13:44:20;20.30;99.90
52859;DHT22;38721;53.098;6.596;2023-09-30T13:46:46;20.50;99.90
52859;DHT22;38721;53.098;6.596;2023-09-30T13:49:12;21.00;99.90
52859;DHT22;38721;53.098;6.596;2023-09-30T13:51:41;21.40;99.90
52859;DHT22;38721;53.098;6.596;2023-09-30T13:54:07;21.50;99.90
52859;DHT22;38721;53.098;6.596;2023-09-30T13:56:33;21.30;99.90
52859;DHT22;38721;53.098;6.596;2023-09-30T13:58:59;21.80;99.90
52859;DHT22;38721;53.098;6.596;2023-09-30T14:01:25;22.10;99.90
52859;DHT22;38721;53.098;6.596;2023-09-30T14:03:52;22.30;99.90
52859;DHT22;38721;53.098;6.596;2023-09-30T14:06:21;21.90;99.90
52859;DHT22;38721;53.098;6.596;2023-09-30T14:08:46;21.30;99.90
52859;DHT22;38721;53.098;6.596;2023-09-30T14:11:12;20.90;99.90
52859;DHT22;38721;53.098;6.596;2023-09-30T14:13:38;21.40;99.90
52859;DHT22;38721;53.098;6.596;2023-09-30T14:16:05;21.30;99.90
52859;DHT22;38721;53.098;6.596;2023-09-30T14:18:32;20.80;99.90
52859;DHT22;38721;53.098;6.596;2023-09-30T14:21:01;20.50;99.90
52859;DHT22;38721;53.098;6.596;2023-09-30T14:23:27;20.20;99.90
52859;DHT22;38721;53.098;6.596;2023-09-30T14:25:54;20.50;99.90
52859;DHT22;38721;53.098;6.596;2023-09-30T14:28:22;20.80;99.90
52859;DHT22;38721;53.098;6.596;2023-09-30T14:30:47;20.30;99.90
52859;DHT22;38721;53.098;6.596;2023-09-30T14:33:18;20.40;99.90
52859;DHT22;38721;53.098;6.596;2023-09-30T14:35:45;20.10;99.90
52859;DHT22;38721;53.098;6.596;2023-09-30T14:38:11;20.10;99.90
52859;DHT22;38721;53.098;6.596;2023-09-30T14:40:38;20.10;99.90
52859;DHT22;38721;53.098;6.596;2023-09-30T14:43:07;20.00;99.90
52859;DHT22;38721;53.098;6.596;2023-09-30T14:45:39;20.00;99.90
52859;DHT22;38721;53.098;6.596;2023-09-30T14:48:09;20.40;99.90
52859;DHT22;38721;53.098;6.596;2023-09-30T14:50:40;20.30;99.90
52859;DHT22;38721;53.098;6.596;2023-09-30T14:53:12;20.20;99.90
52859;DHT22;38721;53.098;6.596;2023-09-30T14:55:38;20.20;99.90
52859;DHT22;38721;53.098;6.596;2023-09-30T14:58:03;20.20;99.90
52859;DHT22;38721;53.098;6.596;2023-09-30T15:00:29;20.00;99.90
52859;DHT22;38721;53.098;6.596;2023-09-30T15:02:55;20.00;99.90
52859;DHT22;38721;53.098;6.596;2023-09-30T15:05:21;20.20;99.90
52859;DHT22;38721;53.098;6.596;2023-09-30T15:07:46;20.10;99.90
52859;DHT22;38721;53.098;6.596;2023-09-30T15:10:12;20.30;99.90
52859;DHT22;38721;53.098;6.596;2023-09-30T15:12:38;20.30;99.90
52859;DHT22;38721;53.098;6.596;2023-09-30T15:15:03;20.30;99.90
52859;DHT22;38721;53.098;6.596;2023-09-30T15:17:29;20.10;99.90
52859;DHT22;38721;53.098;6.596;2023-09-30T15:19:55;20.00;99.90
52859;DHT22;38721;53.098;6.596;2023-09-30T15:22:21;20.10;99.90
52859;DHT22;38721;53.098;6.596;2023-09-30T15:24:46;19.80;99.90
52859;DHT22;38721;53.098;6.596;2023-09-30T15:27:12;19.80;99.90
52859;DHT22;38721;53.098;6.596;2023-09-30T15:29:38;19.80;99.90
52859;DHT22;38721;53.098;6.596;2023-09-30T15:32:04;19.70;99.90
52859;DHT22;38721;53.098;6.596;2023-09-30T15:34:30;19.70;99.90
52859;DHT22;38721;53.098;6.596;2023-09-30T15:36:55;19.50;99.90
52859;DHT22;38721;53.098;6.596;2023-09-30T15:39:21;19.30;99.90
52859;DHT22;38721;53.098;6.596;2023-09-30T15:41:47;19.20;99.90
52859;DHT22;38721;53.098;6.596;2023-09-30T15:44:12;19.20;99.90
52859;DHT22;38721;53.098;6.596;2023-09-30T15:46:38;19.10;99.90
52859;DHT22;38721;53.098;6.596;2023-09-30T15:49:04;19.00;99.90
52859;DHT22;38721;53.098;6.596;2023-09-30T15:51:30;18.90;99.90
52859;DHT22;38721;53.098;6.596;2023-09-30T15:53:56;18.90;99.90
52859;DHT22;38721;53.098;6.596;2023-09-30T15:56:22;18.70;99.90
52859;DHT22;38721;53.098;6.596;2023-09-30T15:58:48;18.70;99.90